Astolfo Dutra, Brazil
Current Conditions -  °F | °C
As of 4:00 PM on Friday 21 Nov 2014 (Local Time) from SBJF Reporting Station
Few Clouds Few Clouds  
Wind Chill: 88°   Ceiling: Unl
Heat Index: 88°   Visibility: 6mi
Dew Point: 54°   Wind: 7mph
Humidity: 31%   Direction: 120°ESE
Pressure: 30.03"   Gusts: NA
Location:  21.32°S, 42.86°W
Report Text: SBJF 211800Z 12006KT 9999 FEW025 31/12 Q1017
Loading
Personal Weather Stations






























Interactive Weather Map New forecast layout! Learn more

10-Day Weather Forecast

Advertisements
Track Severe Weather on mobile